createdAt,value
2019-04-01T00:00:51.695Z,14.70
2019-04-01T00:01:54.652Z,14.70
2019-04-01T00:02:55.665Z,14.70
2019-04-01T00:03:56.676Z,14.70
2019-04-01T00:04:57.675Z,14.60
2019-04-01T00:05:58.692Z,14.60
2019-04-01T00:06:59.696Z,14.60
2019-04-01T00:08:00.900Z,14.60
2019-04-01T00:09:04.600Z,14.60
2019-04-01T00:10:05.603Z,14.60
2019-04-01T00:11:06.629Z,14.60
2019-04-01T00:12:07.632Z,14.60
2019-04-01T00:13:08.635Z,14.60
2019-04-01T00:14:09.644Z,14.60
2019-04-01T00:15:10.763Z,14.60
2019-04-01T00:16:11.777Z,14.50
2019-04-01T00:17:12.785Z,14.50
2019-04-01T00:18:13.792Z,14.50
2019-04-01T00:19:14.802Z,14.50
2019-04-01T00:20:15.808Z,14.50
2019-04-01T00:21:16.823Z,14.50
2019-04-01T00:22:17.927Z,14.50
2019-04-01T00:23:18.933Z,14.50
2019-04-01T00:24:19.933Z,14.40
2019-04-01T00:25:20.936Z,14.40
2019-04-01T00:26:21.964Z,14.40
2019-04-01T00:27:22.972Z,14.40
2019-04-01T00:28:23.976Z,14.30
2019-04-01T00:29:24.987Z,14.30
2019-04-01T00:30:26.316Z,14.30
2019-04-01T00:31:27.332Z,14.30
2019-04-01T00:32:28.343Z,14.30
2019-04-01T00:33:29.366Z,14.20
2019-04-01T00:34:30.364Z,14.20
2019-04-01T00:35:31.383Z,14.20
2019-04-01T00:36:32.398Z,14.20
2019-04-01T00:37:33.399Z,14.20
2019-04-01T00:38:34.406Z,14.10
2019-04-01T00:39:35.424Z,14.10
2019-04-01T00:40:36.452Z,14.10
2019-04-01T00:41:42.137Z,14.10
2019-04-01T00:42:53.818Z,14.00
2019-04-01T00:43:56.723Z,14.00
2019-04-01T00:44:57.741Z,13.90
2019-04-01T00:45:58.945Z,13.90
2019-04-01T00:46:59.955Z,13.90
2019-04-01T00:48:01.256Z,13.90
2019-04-01T00:49:02.260Z,13.80
2019-04-01T00:50:04.971Z,13.80
2019-04-01T00:51:05.991Z,13.70
2019-04-01T00:52:07.010Z,13.70
2019-04-01T00:53:08.116Z,13.70
2019-04-01T00:54:09.119Z,13.60
2019-04-01T00:55:10.433Z,13.60
2019-04-01T00:56:11.520Z,13.60
2019-04-01T00:57:12.622Z,13.60
2019-04-01T00:58:13.681Z,13.60
2019-04-01T00:59:14.683Z,13.60
2019-04-01T01:00:17.195Z,13.60
2019-04-01T01:01:18.214Z,13.60
2019-04-01T01:02:19.233Z,13.50
2019-04-01T01:03:20.242Z,13.50
2019-04-01T01:04:21.253Z,13.50
2019-04-01T01:05:22.256Z,13.50
2019-04-01T01:06:23.251Z,13.50
2019-04-01T01:07:24.268Z,13.50
2019-04-01T01:08:25.265Z,13.40
2019-04-01T01:09:26.271Z,13.40
2019-04-01T01:10:27.301Z,13.40
2019-04-01T01:11:28.309Z,13.40
2019-04-01T01:12:29.324Z,13.40
2019-04-01T01:13:30.337Z,13.40
2019-04-01T01:14:31.336Z,13.40
2019-04-01T01:15:32.353Z,13.30
2019-04-01T01:16:33.365Z,13.30
2019-04-01T01:17:34.377Z,13.30
2019-04-01T01:18:35.384Z,13.30
2019-04-01T01:19:36.393Z,13.30
2019-04-01T01:20:37.397Z,13.20
2019-04-01T01:21:38.394Z,13.20
2019-04-01T01:22:39.409Z,13.20
2019-04-01T01:23:40.700Z,13.20
2019-04-01T01:24:41.706Z,13.10
2019-04-01T01:25:42.718Z,13.10
2019-04-01T01:26:43.750Z,13.10
2019-04-01T01:27:44.766Z,13.10
2019-04-01T01:28:45.767Z,13.10
2019-04-01T01:29:46.767Z,13.10
2019-04-01T01:30:47.767Z,13.10
2019-04-01T01:31:48.776Z,13.00
2019-04-01T01:32:49.838Z,13.00
2019-04-01T01:33:50.843Z,13.10
2019-04-01T01:34:51.848Z,13.00
2019-04-01T01:35:52.854Z,13.00
2019-04-01T01:36:53.855Z,13.00
2019-04-01T01:37:54.876Z,12.90
2019-04-01T01:38:56.684Z,12.90
2019-04-01T01:39:57.688Z,12.90
2019-04-01T01:40:58.690Z,12.90
2019-04-01T01:41:59.695Z,12.90
2019-04-01T01:43:00.707Z,12.90
2019-04-01T01:44:01.720Z,13.00
2019-04-01T01:45:04.027Z,12.90
2019-04-01T01:46:05.035Z,12.90
2019-04-01T01:47:06.055Z,12.90
2019-04-01T01:48:07.059Z,12.90
2019-04-01T01:49:08.173Z,12.80
2019-04-01T01:50:09.297Z,12.80
2019-04-01T01:51:10.337Z,12.80
2019-04-01T01:52:11.343Z,12.80
2019-04-01T01:53:12.348Z,12.80
2019-04-01T01:54:13.664Z,12.80
2019-04-01T01:55:14.669Z,12.80
2019-04-01T01:56:15.681Z,12.80
2019-04-01T01:57:16.684Z,12.80
2019-04-01T01:58:17.701Z,12.80
2019-04-01T01:59:18.714Z,12.80
2019-04-01T02:00:20.312Z,12.80
2019-04-01T02:01:21.324Z,12.80
2019-04-01T02:02:22.325Z,12.80
2019-04-01T02:03:23.355Z,12.80
2019-04-01T02:04:24.363Z,12.80
2019-04-01T02:05:25.372Z,12.80
2019-04-01T02:06:26.382Z,12.80
2019-04-01T02:07:27.379Z,12.80
2019-04-01T02:08:28.408Z,12.70
2019-04-01T02:09:29.413Z,12.70
2019-04-01T02:10:30.451Z,12.70
2019-04-01T02:11:31.525Z,12.70
2019-04-01T02:12:32.538Z,12.70
2019-04-01T02:13:33.553Z,12.60
2019-04-01T02:14:34.594Z,12.60
2019-04-01T02:15:35.923Z,12.50
2019-04-01T02:16:36.943Z,12.50
2019-04-01T02:17:37.940Z,12.50
2019-04-01T02:18:38.964Z,12.40
2019-04-01T02:19:39.976Z,12.30
2019-04-01T02:20:41.018Z,12.30
2019-04-01T02:21:42.080Z,12.30
2019-04-01T02:22:43.092Z,12.30
2019-04-01T02:23:44.107Z,12.30
2019-04-01T02:24:45.120Z,12.30
2019-04-01T02:25:46.126Z,12.20
2019-04-01T02:26:47.137Z,12.20
2019-04-01T02:27:48.135Z,12.20
2019-04-01T02:28:49.156Z,12.20
2019-04-01T02:29:50.155Z,12.10
2019-04-01T02:30:51.163Z,12.10
2019-04-01T02:31:52.164Z,12.20
2019-04-01T02:32:53.160Z,12.20
2019-04-01T02:33:54.307Z,12.20
2019-04-01T02:34:55.311Z,12.20
2019-04-01T02:35:56.329Z,12.10
2019-04-01T02:36:57.328Z,12.20
2019-04-01T02:37:58.329Z,12.10
2019-04-01T02:38:59.345Z,12.10
2019-04-01T02:40:00.752Z,12.10
2019-04-01T02:41:02.063Z,12.10
2019-04-01T02:42:03.465Z,12.10
2019-04-01T02:43:04.473Z,12.10
2019-04-01T02:44:05.493Z,12.00
2019-04-01T02:45:06.610Z,12.00
2019-04-01T02:46:07.617Z,12.00
2019-04-01T02:47:08.633Z,12.00
2019-04-01T02:48:09.635Z,12.00
2019-04-01T02:49:10.648Z,12.00
2019-04-01T02:50:11.760Z,12.00
2019-04-01T02:51:12.857Z,11.90
2019-04-01T02:52:13.870Z,11.90
2019-04-01T02:53:14.899Z,11.90
2019-04-01T02:54:15.917Z,11.90
2019-04-01T02:55:16.925Z,11.90
2019-04-01T02:56:17.928Z,11.90
2019-04-01T02:57:18.942Z,11.90
2019-04-01T02:58:19.952Z,11.90
2019-04-01T02:59:20.961Z,11.80
2019-04-01T03:00:22.169Z,11.80
2019-04-01T03:01:23.203Z,11.80
2019-04-01T03:02:24.296Z,11.80
2019-04-01T03:03:25.598Z,11.80
2019-04-01T03:04:26.607Z,11.80
2019-04-01T03:05:27.621Z,11.80
2019-04-01T03:06:28.625Z,11.80
2019-04-01T03:07:29.631Z,11.80
2019-04-01T03:08:30.652Z,11.80
2019-04-01T03:09:31.665Z,11.80
2019-04-01T03:10:32.682Z,11.90
2019-04-01T03:11:33.692Z,11.80
2019-04-01T03:12:34.688Z,11.80
2019-04-01T03:13:35.702Z,11.80
2019-04-01T03:14:37.035Z,11.70
2019-04-01T03:15:38.051Z,11.70
2019-04-01T03:16:39.047Z,11.70
2019-04-01T03:17:40.056Z,11.70
2019-04-01T03:18:41.061Z,11.60
2019-04-01T03:19:42.083Z,11.60
2019-04-01T03:20:43.084Z,11.50
2019-04-01T03:21:44.095Z,11.50
2019-04-01T03:22:45.132Z,11.50
2019-04-01T03:23:46.140Z,11.50
2019-04-01T03:24:47.160Z,11.50
2019-04-01T03:25:48.166Z,11.50
2019-04-01T03:26:49.181Z,11.40
2019-04-01T03:27:50.183Z,11.40
2019-04-01T03:28:51.190Z,11.30
2019-04-01T03:29:52.214Z,11.30
2019-04-01T03:30:53.225Z,11.30
2019-04-01T03:31:54.310Z,11.30
2019-04-01T03:32:55.538Z,11.40
2019-04-01T03:33:56.570Z,11.40
2019-04-01T03:34:57.737Z,11.40
2019-04-01T03:35:58.809Z,11.40
2019-04-01T03:36:59.827Z,11.40
2019-04-01T03:38:00.831Z,11.40
2019-04-01T03:39:02.289Z,11.40
2019-04-01T03:40:05.299Z,11.40
2019-04-01T03:41:06.313Z,11.40
2019-04-01T03:42:07.332Z,11.40
2019-04-01T03:43:08.338Z,11.40
2019-04-01T03:44:09.342Z,11.40
2019-04-01T03:45:10.350Z,11.30
2019-04-01T03:46:11.343Z,11.30
2019-04-01T03:47:12.352Z,11.30
2019-04-01T03:48:13.358Z,11.30
2019-04-01T03:49:14.356Z,11.30
2019-04-01T03:50:15.380Z,11.30
2019-04-01T03:51:16.384Z,11.30
2019-04-01T03:52:17.401Z,11.30
2019-04-01T03:53:18.407Z,11.30
2019-04-01T03:54:19.455Z,11.30
2019-04-01T03:55:20.473Z,11.30
2019-04-01T03:56:21.483Z,11.30
2019-04-01T03:57:22.493Z,11.20
2019-04-01T03:58:23.496Z,11.20
2019-04-01T03:59:24.507Z,11.20
2019-04-01T04:00:25.524Z,11.20
2019-04-01T04:01:30.287Z,11.20
2019-04-01T04:02:29.458Z,11.10
2019-04-01T04:03:30.459Z,11.10
2019-04-01T04:04:31.473Z,11.20
2019-04-01T04:05:32.503Z,11.20
2019-04-01T04:06:33.796Z,11.20
2019-04-01T04:07:34.819Z,11.20
2019-04-01T04:08:36.165Z,11.10
2019-04-01T04:09:37.165Z,11.10
2019-04-01T04:10:38.438Z,11.10
2019-04-01T04:11:39.432Z,11.10
2019-04-01T04:12:41.044Z,11.00
2019-04-01T04:13:42.048Z,11.00
2019-04-01T04:14:43.371Z,11.00
2019-04-01T04:15:44.415Z,11.00
2019-04-01T04:16:45.403Z,10.90
2019-04-01T04:17:46.414Z,10.90
2019-04-01T04:18:47.421Z,10.90
2019-04-01T04:19:48.423Z,10.90
2019-04-01T04:20:49.431Z,10.90
2019-04-01T04:21:50.439Z,10.90
2019-04-01T04:22:51.462Z,10.90
2019-04-01T04:23:52.556Z,11.00
2019-04-01T04:24:53.562Z,10.90
2019-04-01T04:25:54.779Z,10.90
2019-04-01T04:26:56.055Z,10.90
2019-04-01T04:27:57.158Z,10.90
2019-04-01T04:28:58.164Z,10.90
2019-04-01T04:29:59.172Z,10.90
2019-04-01T04:31:00.200Z,10.90
2019-04-01T04:32:01.201Z,11.00
2019-04-01T04:33:02.327Z,11.00
2019-04-01T04:34:03.627Z,11.00
2019-04-01T04:35:05.232Z,11.00
2019-04-01T04:36:06.554Z,11.10
2019-04-01T04:37:07.566Z,11.10
2019-04-01T04:38:08.569Z,11.10
2019-04-01T04:39:09.575Z,11.10
2019-04-01T04:40:10.888Z,11.10
2019-04-01T04:41:11.901Z,11.20
2019-04-01T04:42:12.909Z,11.20
2019-04-01T04:43:13.920Z,11.20
2019-04-01T04:44:14.968Z,11.20
2019-04-01T04:45:15.993Z,11.20
2019-04-01T04:46:20.835Z,11.20
2019-04-01T04:47:20.181Z,11.20
2019-04-01T04:48:21.192Z,11.20
2019-04-01T04:49:22.201Z,11.30
2019-04-01T04:50:23.204Z,11.20
2019-04-01T04:51:24.227Z,11.20
2019-04-01T04:52:25.232Z,11.20
2019-04-01T04:53:26.235Z,11.20
2019-04-01T04:54:27.231Z,11.30
2019-04-01T04:55:28.243Z,11.20
2019-04-01T04:56:29.256Z,11.20
2019-04-01T04:57:30.271Z,11.20
2019-04-01T04:58:31.277Z,11.20
2019-04-01T04:59:32.279Z,11.20
2019-04-01T05:00:33.280Z,11.20
2019-04-01T05:01:34.325Z,11.20
2019-04-01T05:02:35.332Z,11.10
2019-04-01T05:03:36.340Z,11.20
2019-04-01T05:04:37.451Z,11.20
2019-04-01T05:05:38.455Z,11.20
2019-04-01T05:06:39.480Z,11.20
2019-04-01T05:07:40.481Z,11.20
2019-04-01T05:08:41.496Z,11.20
2019-04-01T05:09:42.560Z,11.20
2019-04-01T05:10:43.568Z,11.20
2019-04-01T05:11:44.611Z,11.20
2019-04-01T05:12:45.624Z,11.20
2019-04-01T05:13:46.634Z,11.20
2019-04-01T05:14:47.640Z,11.20
2019-04-01T05:15:48.667Z,11.10
2019-04-01T05:16:49.699Z,11.10
2019-04-01T05:17:50.703Z,11.10
2019-04-01T05:18:51.713Z,11.20
2019-04-01T05:19:52.837Z,11.20
2019-04-01T05:20:54.748Z,11.20
2019-04-01T05:21:56.756Z,11.10
2019-04-01T05:22:58.857Z,11.10
2019-04-01T05:24:00.864Z,11.10
2019-04-01T05:25:02.899Z,11.10
2019-04-01T05:26:05.000Z,11.10
2019-04-01T05:27:06.813Z,11.10
2019-04-01T05:28:10.028Z,11.10
2019-04-01T05:29:11.063Z,11.10
2019-04-01T05:30:12.266Z,11.10
2019-04-01T05:31:14.652Z,11.10
2019-04-01T05:32:18.777Z,11.10
2019-04-01T05:33:20.781Z,11.10
2019-04-01T05:34:23.391Z,11.10
2019-04-01T05:35:25.200Z,11.10
2019-04-01T05:36:26.422Z,11.10
2019-04-01T05:37:27.468Z,11.10
2019-04-01T05:38:28.474Z,11.10
2019-04-01T05:39:30.377Z,11.10
2019-04-01T05:40:31.385Z,11.10
2019-04-01T05:41:32.410Z,11.10
2019-04-01T05:42:33.416Z,11.10
2019-04-01T05:43:34.528Z,11.10
2019-04-01T05:44:35.637Z,11.10
2019-04-01T05:45:36.644Z,11.20
2019-04-01T05:46:37.871Z,11.20
2019-04-01T05:47:40.767Z,11.20
2019-04-01T05:48:41.777Z,11.20
2019-04-01T05:49:42.844Z,11.20
2019-04-01T05:50:43.996Z,11.20
2019-04-01T05:51:45.024Z,11.20
2019-04-01T05:52:46.027Z,11.20
2019-04-01T05:53:47.035Z,11.20
2019-04-01T05:54:48.049Z,11.20
2019-04-01T05:55:49.047Z,11.20
2019-04-01T05:56:50.071Z,11.10
2019-04-01T05:57:51.077Z,11.10
2019-04-01T05:58:52.100Z,11.10
2019-04-01T05:59:53.100Z,11.10
2019-04-01T06:01:13.867Z,11.10
2019-04-01T06:02:14.895Z,11.10
2019-04-01T06:03:16.004Z,11.10
2019-04-01T06:04:17.020Z,11.10
2019-04-01T06:05:18.024Z,11.20
2019-04-01T06:06:19.143Z,11.20
2019-04-01T06:07:20.144Z,11.20
2019-04-01T06:08:21.153Z,11.20
2019-04-01T06:09:22.263Z,11.20
2019-04-01T06:10:23.281Z,11.20
2019-04-01T06:11:24.288Z,11.20
2019-04-01T06:12:25.320Z,11.30
2019-04-01T06:13:26.333Z,11.30
2019-04-01T06:14:27.342Z,11.30
2019-04-01T06:15:28.416Z,11.30
2019-04-01T06:16:29.747Z,11.30
2019-04-01T06:17:30.888Z,11.30
2019-04-01T06:18:31.896Z,11.30
2019-04-01T06:19:33.000Z,11.30
2019-04-01T06:20:34.014Z,11.30
2019-04-01T06:21:35.507Z,11.30
2019-04-01T06:22:36.520Z,11.30
2019-04-01T06:23:37.523Z,11.30
2019-04-01T06:24:38.523Z,11.30
2019-04-01T06:25:40.133Z,11.30
2019-04-01T06:26:41.152Z,11.30
2019-04-01T06:27:42.272Z,11.20
2019-04-01T06:28:43.299Z,11.20
2019-04-01T06:29:44.683Z,11.20
2019-04-01T06:30:45.787Z,11.20
2019-04-01T06:31:46.793Z,11.20
2019-04-01T06:32:47.807Z,11.20
2019-04-01T06:33:48.829Z,11.30
2019-04-01T06:34:52.983Z,11.30
2019-04-01T06:35:53.048Z,11.30
2019-04-01T06:36:54.052Z,11.40
2019-04-01T06:37:55.069Z,11.40
2019-04-01T06:38:56.124Z,11.40
2019-04-01T06:39:57.661Z,11.40
2019-04-01T06:40:58.684Z,11.40
2019-04-01T06:41:59.688Z,11.50
2019-04-01T06:43:00.742Z,11.40
2019-04-01T06:44:01.946Z,11.50
2019-04-01T06:45:05.169Z,11.50
2019-04-01T06:46:06.171Z,11.50
2019-04-01T06:47:07.212Z,11.50
2019-04-01T06:48:08.220Z,11.50
2019-04-01T06:49:09.285Z,11.50
2019-04-01T06:50:10.780Z,11.50
2019-04-01T06:51:11.841Z,11.60
2019-04-01T06:52:12.947Z,11.60
2019-04-01T06:53:13.986Z,11.60
2019-04-01T06:54:14.994Z,11.60
2019-04-01T06:55:16.013Z,11.60
2019-04-01T06:56:17.319Z,11.60
2019-04-01T06:57:18.324Z,11.50
2019-04-01T06:58:19.394Z,11.60
2019-04-01T06:59:20.496Z,11.60
2019-04-01T07:00:21.504Z,11.60
2019-04-01T07:01:22.520Z,11.70
2019-04-01T07:02:23.745Z,11.70
2019-04-01T07:03:24.761Z,11.80
2019-04-01T07:04:25.859Z,11.80
2019-04-01T07:05:26.872Z,11.80
2019-04-01T07:06:27.879Z,11.90
2019-04-01T07:07:28.883Z,11.90
2019-04-01T07:08:30.295Z,11.90
2019-04-01T07:09:31.321Z,12.00
2019-04-01T07:10:32.479Z,12.00
2019-04-01T07:11:33.692Z,12.00
2019-04-01T07:12:35.008Z,12.00
2019-04-01T07:13:39.719Z,12.00
2019-04-01T07:14:38.932Z,12.10
2019-04-01T07:15:39.936Z,12.10
2019-04-01T07:16:40.942Z,12.10
2019-04-01T07:17:42.047Z,12.10
2019-04-01T07:18:43.169Z,12.10
2019-04-01T07:19:44.212Z,12.20
2019-04-01T07:20:45.213Z,12.10
2019-04-01T07:21:46.361Z,12.20
2019-04-01T07:22:47.597Z,12.20
2019-04-01T07:23:48.600Z,12.20
2019-04-01T07:24:49.659Z,12.20
2019-04-01T07:25:50.724Z,12.20
2019-04-01T07:26:51.723Z,12.20
2019-04-01T07:27:52.776Z,12.30
2019-04-01T07:28:53.782Z,12.20
2019-04-01T07:29:54.799Z,12.30
2019-04-01T07:30:56.113Z,12.30
2019-04-01T07:31:57.155Z,12.30
2019-04-01T07:32:58.184Z,12.30
2019-04-01T07:33:59.190Z,12.30
2019-04-01T07:35:01.203Z,12.30
2019-04-01T07:36:02.199Z,12.40
2019-04-01T07:37:03.305Z,12.40
2019-04-01T07:38:04.423Z,12.30
2019-04-01T07:39:05.530Z,12.40
2019-04-01T07:40:06.839Z,12.30
2019-04-01T07:41:07.847Z,12.30
2019-04-01T07:42:08.906Z,12.30
2019-04-01T07:43:10.220Z,12.30
2019-04-01T07:44:11.326Z,12.30
2019-04-01T07:45:12.416Z,12.30
2019-04-01T07:46:13.531Z,12.30
2019-04-01T07:47:14.665Z,12.40
2019-04-01T07:48:16.107Z,12.40
2019-04-01T07:49:17.116Z,12.40
2019-04-01T07:50:18.129Z,12.40
2019-04-01T07:51:20.078Z,12.40
2019-04-01T07:52:21.152Z,12.40
2019-04-01T07:53:22.175Z,12.40
2019-04-01T07:54:23.189Z,12.40
2019-04-01T07:55:24.197Z,12.40
2019-04-01T07:56:25.821Z,12.50
2019-04-01T07:57:27.544Z,12.50
2019-04-01T07:58:28.554Z,12.50
2019-04-01T07:59:29.864Z,12.60
2019-04-01T08:00:30.877Z,12.60
2019-04-01T08:01:31.998Z,12.60
2019-04-01T08:02:33.201Z,12.60
2019-04-01T08:03:35.220Z,12.70
2019-04-01T08:04:36.226Z,12.70
2019-04-01T08:05:37.736Z,12.70
2019-04-01T08:06:39.083Z,12.70
2019-04-01T08:07:40.199Z,12.80
2019-04-01T08:08:41.213Z,12.80
2019-04-01T08:09:42.232Z,12.80
2019-04-01T08:10:43.232Z,12.80
2019-04-01T08:11:44.263Z,12.80
2019-04-01T08:12:45.314Z,12.90
2019-04-01T08:13:46.339Z,12.90
2019-04-01T08:14:47.336Z,12.90
2019-04-01T08:15:48.348Z,13.00
2019-04-01T08:16:49.651Z,13.00
2019-04-01T08:17:50.662Z,13.00
2019-04-01T08:18:51.778Z,13.10
2019-04-01T08:19:52.807Z,13.10
2019-04-01T08:20:53.834Z,13.10
2019-04-01T08:21:54.849Z,13.10
2019-04-01T08:22:55.960Z,13.20
2019-04-01T08:23:56.979Z,13.20
2019-04-01T08:24:57.984Z,13.20
2019-04-01T08:25:58.983Z,13.20
2019-04-01T08:27:00.029Z,13.30
2019-04-01T08:28:01.121Z,13.30
2019-04-01T08:29:02.344Z,13.30
2019-04-01T08:30:08.051Z,13.40
2019-04-01T08:31:09.051Z,13.40
2019-04-01T08:32:13.626Z,13.40
2019-04-01T08:33:12.996Z,13.40
2019-04-01T08:34:14.047Z,13.40
2019-04-01T08:35:15.161Z,13.50
2019-04-01T08:36:16.151Z,13.60
2019-04-01T08:37:17.160Z,13.50
2019-04-01T08:38:18.221Z,13.50
2019-04-01T08:39:19.301Z,13.50
2019-04-01T08:40:20.312Z,13.60
2019-04-01T08:41:21.301Z,13.60
2019-04-01T08:42:22.304Z,13.60
2019-04-01T08:43:23.681Z,13.70
2019-04-01T08:44:24.784Z,13.70
2019-04-01T08:45:25.792Z,13.70
2019-04-01T08:46:26.804Z,13.70
2019-04-01T08:47:27.949Z,13.80
2019-04-01T08:48:28.951Z,13.80
2019-04-01T08:49:29.972Z,13.90
2019-04-01T08:50:30.994Z,13.90
2019-04-01T08:51:32.008Z,13.90
2019-04-01T08:52:33.204Z,13.90
2019-04-01T08:53:34.212Z,13.90
2019-04-01T08:54:35.228Z,14.00
2019-04-01T08:55:36.241Z,14.00
2019-04-01T08:56:38.048Z,14.00
2019-04-01T08:57:39.460Z,14.00
2019-04-01T08:58:40.470Z,14.10
2019-04-01T08:59:41.673Z,14.10
2019-04-01T09:00:42.693Z,14.10
2019-04-01T09:01:43.713Z,14.10
2019-04-01T09:02:44.717Z,14.10
2019-04-01T09:03:45.821Z,14.20
2019-04-01T09:04:46.839Z,14.20
2019-04-01T09:05:47.891Z,14.20
2019-04-01T09:06:48.981Z,14.20
2019-04-01T09:07:50.010Z,14.20
2019-04-01T09:08:51.608Z,14.30
2019-04-01T09:09:53.134Z,14.20
2019-04-01T09:10:54.142Z,14.30
2019-04-01T09:11:56.553Z,14.30
2019-04-01T09:12:58.227Z,14.30
2019-04-01T09:13:59.773Z,14.30
2019-04-01T09:15:01.386Z,14.40
2019-04-01T09:16:02.513Z,14.40
2019-04-01T09:17:03.512Z,14.50
2019-04-01T09:18:04.529Z,14.50
2019-04-01T09:19:05.535Z,14.50
2019-04-01T09:20:06.660Z,14.50
2019-04-01T09:21:07.663Z,14.50
2019-04-01T09:22:08.680Z,14.50
2019-04-01T09:23:09.677Z,14.50
2019-04-01T09:24:10.683Z,14.60
2019-04-01T09:25:11.825Z,14.60
2019-04-01T09:26:13.143Z,14.70
2019-04-01T09:27:14.171Z,14.70
2019-04-01T09:28:15.175Z,14.70
2019-04-01T09:29:16.200Z,14.80
2019-04-01T09:30:18.826Z,14.80
2019-04-01T09:31:20.040Z,14.80
2019-04-01T09:32:21.323Z,14.90
2019-04-01T09:33:22.338Z,14.90
2019-04-01T09:34:23.387Z,14.90
2019-04-01T09:35:24.406Z,14.90
2019-04-01T09:36:25.423Z,15.00
2019-04-01T09:37:26.428Z,15.00
2019-04-01T09:38:27.432Z,15.00
2019-04-01T09:39:28.455Z,15.10
2019-04-01T09:40:29.874Z,15.10
2019-04-01T09:41:30.901Z,15.10
2019-04-01T09:42:31.934Z,15.20
2019-04-01T09:43:32.924Z,15.20
2019-04-01T09:44:37.174Z,15.30
2019-04-01T09:45:36.968Z,15.30
2019-04-01T09:46:37.965Z,15.30
2019-04-01T09:47:38.981Z,15.40
2019-04-01T09:48:40.021Z,15.40
2019-04-01T09:49:41.033Z,15.40
2019-04-01T09:50:42.044Z,15.40
2019-04-01T09:51:48.885Z,15.40
2019-04-01T09:52:45.975Z,15.50
2019-04-01T09:53:47.080Z,15.50
2019-04-01T09:54:48.101Z,15.50
2019-04-01T09:55:49.104Z,15.50
2019-04-01T09:56:50.106Z,15.50
2019-04-01T09:57:51.111Z,15.50
2019-04-01T09:58:52.119Z,15.60
2019-04-01T09:59:53.131Z,15.60
2019-04-01T10:00:54.148Z,15.60
2019-04-01T10:01:55.159Z,15.60
2019-04-01T10:02:56.168Z,15.70
2019-04-01T10:03:57.192Z,15.70
2019-04-01T10:04:58.192Z,15.70
2019-04-01T10:05:59.209Z,15.70
2019-04-01T10:07:00.220Z,15.80
2019-04-01T10:08:01.234Z,15.80
2019-04-01T10:09:05.340Z,15.80
2019-04-01T10:10:06.865Z,15.80
2019-04-01T10:11:07.864Z,15.80
2019-04-01T10:12:08.887Z,15.80
2019-04-01T10:13:09.892Z,15.90
2019-04-01T10:14:10.899Z,15.90
2019-04-01T10:15:12.017Z,15.90
2019-04-01T10:16:13.141Z,15.90
2019-04-01T10:17:14.144Z,15.90
2019-04-01T10:18:15.157Z,15.90
2019-04-01T10:19:16.181Z,16.00
2019-04-01T10:20:17.292Z,16.00
2019-04-01T10:21:18.300Z,16.00
2019-04-01T10:22:19.304Z,16.00
2019-04-01T10:23:20.311Z,16.10
2019-04-01T10:24:21.316Z,16.10
2019-04-01T10:25:22.338Z,16.10
2019-04-01T10:26:23.341Z,16.20
2019-04-01T10:27:24.356Z,16.20
2019-04-01T10:28:25.377Z,16.10
2019-04-01T10:29:26.387Z,16.10
2019-04-01T10:30:27.595Z,16.00
2019-04-01T10:31:28.604Z,16.00
2019-04-01T10:32:29.625Z,16.00
2019-04-01T10:33:30.721Z,16.10
2019-04-01T10:34:34.116Z,16.10
2019-04-01T10:35:34.665Z,16.20
2019-04-01T10:36:35.668Z,16.20
2019-04-01T10:37:36.693Z,16.20
2019-04-01T10:38:37.708Z,16.30
2019-04-01T10:39:38.712Z,16.30
2019-04-01T10:40:39.763Z,16.40
2019-04-01T10:41:40.764Z,16.50
2019-04-01T10:42:41.780Z,16.50
2019-04-01T10:43:42.795Z,16.60
2019-04-01T10:44:43.791Z,16.60
2019-04-01T10:45:44.816Z,16.60
2019-04-01T10:46:45.884Z,16.60
2019-04-01T10:47:46.974Z,16.60
2019-04-01T10:48:48.162Z,16.60
2019-04-01T10:49:49.336Z,16.70
2019-04-01T10:50:50.453Z,16.70
2019-04-01T10:51:51.567Z,16.70
2019-04-01T10:52:52.718Z,16.80
2019-04-01T10:53:53.809Z,16.80
2019-04-01T10:54:54.892Z,16.90
2019-04-01T10:55:56.008Z,16.90
2019-04-01T10:56:57.080Z,17.00
2019-04-01T10:57:58.106Z,17.00
2019-04-01T10:58:59.113Z,17.10
2019-04-01T11:00:00.152Z,17.10
2019-04-01T11:01:01.328Z,17.10
2019-04-01T11:02:02.585Z,17.10
2019-04-01T11:03:06.086Z,17.20
2019-04-01T11:04:06.747Z,17.20
2019-04-01T11:05:08.389Z,17.20
2019-04-01T11:06:09.412Z,17.20
2019-04-01T11:07:10.449Z,17.20
2019-04-01T11:08:12.069Z,17.20
2019-04-01T11:09:13.378Z,17.20
2019-04-01T11:10:14.455Z,17.20
2019-04-01T11:11:15.739Z,17.30
2019-04-01T11:12:16.779Z,17.30
2019-04-01T11:13:17.903Z,17.30
2019-04-01T11:14:18.935Z,17.30
2019-04-01T11:15:20.665Z,17.40
2019-04-01T11:16:21.777Z,17.40
2019-04-01T11:17:22.793Z,17.40
2019-04-01T11:18:23.801Z,17.50
2019-04-01T11:19:24.813Z,17.50
2019-04-01T11:20:25.811Z,17.60
2019-04-01T11:21:26.820Z,17.60
2019-04-01T11:22:27.824Z,17.70
2019-04-01T11:23:28.867Z,17.70
2019-04-01T11:24:29.973Z,17.80
2019-04-01T11:25:31.002Z,17.80
2019-04-01T11:26:32.024Z,17.90
2019-04-01T11:27:33.029Z,17.90
2019-04-01T11:28:34.766Z,18.00
2019-04-01T11:29:36.153Z,18.00
2019-04-01T11:30:37.417Z,18.00
2019-04-01T11:31:38.839Z,18.10
2019-04-01T11:32:40.497Z,18.00
2019-04-01T11:33:41.802Z,18.00
2019-04-01T11:34:42.893Z,18.00
2019-04-01T11:35:44.091Z,18.00
2019-04-01T11:36:45.501Z,18.00
2019-04-01T11:37:46.600Z,18.00
2019-04-01T11:38:47.706Z,18.00
2019-04-01T11:39:48.889Z,18.10
2019-04-01T11:40:49.964Z,18.10
2019-04-01T11:41:51.046Z,18.10
2019-04-01T11:42:52.927Z,18.20
2019-04-01T11:43:54.367Z,18.20
2019-04-01T11:44:55.414Z,18.20
2019-04-01T11:45:56.526Z,18.20
2019-04-01T11:46:57.659Z,18.20
2019-04-01T11:47:58.787Z,18.30
2019-04-01T11:48:59.887Z,18.30
2019-04-01T11:50:01.052Z,18.40
2019-04-01T11:51:02.079Z,18.40
2019-04-01T11:52:03.089Z,18.40
2019-04-01T11:53:04.186Z,18.40
2019-04-01T11:54:07.989Z,18.40
2019-04-01T11:55:09.221Z,18.50
2019-04-01T11:56:10.949Z,18.50
2019-04-01T11:57:12.263Z,18.50
2019-04-01T11:58:13.307Z,18.50
2019-04-01T11:59:14.300Z,18.50
2019-04-01T12:00:16.920Z,18.60
2019-04-01T12:01:17.937Z,18.60
2019-04-01T12:02:18.961Z,18.70
2019-04-01T12:03:20.229Z,18.70
2019-04-01T12:04:21.953Z,18.80
2019-04-01T12:05:23.321Z,18.80
2019-04-01T12:06:24.360Z,18.90
2019-04-01T12:07:25.369Z,18.80
2019-04-01T12:08:26.367Z,18.80
2019-04-01T12:09:27.913Z,18.90
2019-04-01T12:10:29.541Z,18.90
2019-04-01T12:11:30.584Z,18.90
2019-04-01T12:12:31.977Z,18.90
2019-04-01T12:13:33.275Z,18.90
2019-04-01T12:14:34.284Z,19.00
2019-04-01T12:15:35.306Z,19.00
2019-04-01T12:16:36.338Z,19.10
2019-04-01T12:17:37.347Z,19.10
2019-04-01T12:18:38.365Z,19.10
2019-04-01T12:19:40.153Z,19.10
2019-04-01T12:20:41.292Z,19.20
2019-04-01T12:21:42.317Z,19.20
2019-04-01T12:22:45.608Z,19.20
2019-04-01T12:23:46.230Z,19.20
2019-04-01T12:24:47.231Z,19.30
2019-04-01T12:25:48.244Z,19.30
2019-04-01T12:26:49.272Z,19.30
2019-04-01T12:27:50.276Z,19.30
2019-04-01T12:28:51.281Z,19.30
2019-04-01T12:29:52.312Z,19.40
2019-04-01T12:30:53.313Z,19.50
2019-04-01T12:31:54.337Z,19.50
2019-04-01T12:32:55.360Z,19.60
2019-04-01T12:33:56.360Z,19.60
2019-04-01T12:34:57.364Z,19.70
2019-04-01T12:35:58.364Z,19.70
2019-04-01T12:36:59.388Z,19.70
2019-04-01T12:38:00.396Z,19.70
2019-04-01T12:39:01.399Z,19.70
2019-04-01T12:40:04.610Z,19.70
2019-04-01T12:41:05.616Z,19.70
2019-04-01T12:42:06.935Z,19.80
2019-04-01T12:43:07.979Z,19.80
2019-04-01T12:44:09.084Z,19.70
2019-04-01T12:45:10.911Z,19.80
2019-04-01T12:46:11.984Z,19.80
2019-04-01T12:47:13.309Z,19.80
2019-04-01T12:48:14.652Z,19.80
2019-04-01T12:49:15.652Z,19.70
2019-04-01T12:50:16.760Z,19.80
2019-04-01T12:51:17.763Z,19.80
2019-04-01T12:52:18.783Z,19.80
2019-04-01T12:53:20.109Z,19.80
2019-04-01T12:54:21.321Z,19.80
2019-04-01T12:55:22.328Z,19.80
2019-04-01T12:56:23.327Z,19.90
2019-04-01T12:57:24.459Z,20.00
2019-04-01T12:58:25.820Z,20.00
2019-04-01T12:59:26.924Z,20.00
2019-04-01T13:00:29.339Z,20.10
2019-04-01T13:01:30.544Z,20.10
2019-04-01T13:02:31.868Z,20.20
2019-04-01T13:03:32.948Z,20.20
2019-04-01T13:04:36.108Z,20.20
2019-04-01T13:05:36.874Z,20.20
2019-04-01T13:06:37.990Z,20.20
2019-04-01T13:07:38.996Z,20.10
2019-04-01T13:08:40.000Z,20.10